createdAt,value
2017-09-25T00:00:25.108Z,0
2017-09-25T00:01:05.691Z,0
2017-09-25T00:01:46.270Z,0
2017-09-25T00:02:26.834Z,0
2017-09-25T00:03:07.389Z,0
2017-09-25T00:03:47.959Z,0
2017-09-25T00:04:28.526Z,0
2017-09-25T00:05:09.096Z,0
2017-09-25T00:05:49.663Z,0
2017-09-25T00:06:30.231Z,0
2017-09-25T00:07:10.806Z,0
2017-09-25T00:07:51.379Z,0
2017-09-25T00:08:31.961Z,0
2017-09-25T00:09:12.535Z,0
2017-09-25T00:09:53.100Z,0
2017-09-25T00:10:33.681Z,0
2017-09-25T00:11:14.250Z,0
2017-09-25T00:11:54.823Z,0
2017-09-25T00:12:35.402Z,0
2017-09-25T00:13:15.980Z,0
2017-09-25T00:13:56.551Z,0
2017-09-25T00:14:37.124Z,0
2017-09-25T00:15:17.692Z,0
2017-09-25T00:15:58.271Z,0
2017-09-25T00:16:38.825Z,0
2017-09-25T00:17:19.374Z,0
2017-09-25T00:17:59.926Z,0
2017-09-25T00:18:40.491Z,0
2017-09-25T00:19:21.064Z,0
2017-09-25T00:20:02.173Z,0
2017-09-25T00:20:42.748Z,0
2017-09-25T00:21:23.322Z,0
2017-09-25T00:22:03.886Z,0
2017-09-25T00:22:44.468Z,0
2017-09-25T00:23:25.048Z,0
2017-09-25T00:24:05.622Z,0
2017-09-25T00:24:46.185Z,0
2017-09-25T00:25:26.772Z,0
2017-09-25T00:26:07.332Z,0
2017-09-25T00:26:47.877Z,0
2017-09-25T00:27:28.432Z,0
2017-09-25T00:28:09.000Z,0
2017-09-25T00:28:50.074Z,0
2017-09-25T00:29:30.662Z,0
2017-09-25T00:30:12.179Z,0
2017-09-25T00:30:52.745Z,0
2017-09-25T00:31:33.304Z,0
2017-09-25T00:32:14.585Z,0
2017-09-25T00:32:55.170Z,0
2017-09-25T00:33:35.778Z,0
2017-09-25T00:34:16.347Z,0
2017-09-25T00:34:56.905Z,0
2017-09-25T00:35:38.443Z,0
2017-09-25T00:36:19.007Z,0
2017-09-25T00:36:59.590Z,0
2017-09-25T00:37:40.173Z,0
2017-09-25T00:38:20.748Z,0
2017-09-25T00:39:01.314Z,0
2017-09-25T00:39:41.897Z,0
2017-09-25T00:40:22.490Z,0
2017-09-25T00:41:03.082Z,0
2017-09-25T00:41:43.660Z,0
2017-09-25T00:42:24.244Z,0
2017-09-25T00:43:04.811Z,0
2017-09-25T00:43:45.362Z,0
2017-09-25T00:44:25.932Z,0
2017-09-25T00:45:06.504Z,0
2017-09-25T00:45:47.074Z,0
2017-09-25T00:46:27.652Z,0
2017-09-25T00:47:08.216Z,0
2017-09-25T00:47:49.554Z,0
2017-09-25T00:48:30.136Z,0
2017-09-25T00:49:10.721Z,0
2017-09-25T00:49:51.295Z,0
2017-09-25T00:50:31.895Z,0
2017-09-25T00:51:12.446Z,0
2017-09-25T00:51:53.025Z,0
2017-09-25T00:52:33.603Z,0
2017-09-25T00:53:14.176Z,0
2017-09-25T00:53:54.736Z,0
2017-09-25T00:54:35.330Z,0
2017-09-25T00:55:15.897Z,0
2017-09-25T00:55:56.469Z,0
2017-09-25T00:56:37.030Z,0
2017-09-25T00:57:17.585Z,0
2017-09-25T00:57:58.139Z,0
2017-09-25T00:58:38.731Z,0
2017-09-25T00:59:19.305Z,0
2017-09-25T00:59:59.888Z,0
2017-09-25T01:00:40.470Z,0
2017-09-25T01:01:21.044Z,0
2017-09-25T01:02:01.628Z,0
2017-09-25T01:02:42.260Z,0
2017-09-25T01:03:22.804Z,0
2017-09-25T01:04:03.311Z,0
2017-09-25T01:04:43.882Z,0
2017-09-25T01:05:24.443Z,0
2017-09-25T01:06:05.038Z,0
2017-09-25T01:06:46.576Z,0
2017-09-25T01:07:27.142Z,0
2017-09-25T01:08:07.723Z,0
2017-09-25T01:08:48.279Z,0
2017-09-25T01:09:28.856Z,0
2017-09-25T01:10:09.437Z,0
2017-09-25T01:10:50.017Z,0
2017-09-25T01:11:30.611Z,0
2017-09-25T01:12:11.173Z,0
2017-09-25T01:12:51.755Z,0
2017-09-25T01:13:33.178Z,0
2017-09-25T01:14:13.737Z,0
2017-09-25T01:14:54.317Z,0
2017-09-25T01:15:34.895Z,0
2017-09-25T01:16:15.455Z,0
2017-09-25T01:16:56.584Z,0
2017-09-25T01:17:37.162Z,0
2017-09-25T01:18:17.704Z,0
2017-09-25T01:18:58.273Z,0
2017-09-25T01:19:38.851Z,0
2017-09-25T01:20:19.410Z,0
2017-09-25T01:20:59.991Z,0
2017-09-25T01:21:40.553Z,0
2017-09-25T01:22:21.110Z,0
2017-09-25T01:23:01.681Z,0
2017-09-25T01:23:42.257Z,0
2017-09-25T01:24:22.850Z,0
2017-09-25T01:25:03.434Z,0
2017-09-25T01:25:44.003Z,0
2017-09-25T01:26:24.583Z,0
2017-09-25T01:27:05.162Z,0
2017-09-25T01:27:45.740Z,0
2017-09-25T01:28:26.300Z,0
2017-09-25T01:29:06.882Z,0
2017-09-25T01:29:47.461Z,0
2017-09-25T01:30:28.036Z,0
2017-09-25T01:31:08.615Z,0
2017-09-25T01:31:49.186Z,0
2017-09-25T01:32:29.763Z,0
2017-09-25T01:33:10.336Z,0
2017-09-25T01:33:50.908Z,0
2017-09-25T01:34:31.478Z,0
2017-09-25T01:35:12.056Z,0
2017-09-25T01:35:52.634Z,0
2017-09-25T01:36:33.202Z,0
2017-09-25T01:37:13.784Z,0
2017-09-25T01:37:54.364Z,0
2017-09-25T01:38:34.952Z,0
2017-09-25T01:39:15.513Z,0
2017-09-25T01:39:56.085Z,0
2017-09-25T01:40:36.675Z,0
2017-09-25T01:41:17.245Z,0
2017-09-25T01:41:57.818Z,0
2017-09-25T01:42:38.382Z,0
2017-09-25T01:44:51.227Z,0
2017-09-25T01:45:31.810Z,0
2017-09-25T01:46:12.387Z,0
2017-09-25T01:46:52.965Z,0
2017-09-25T01:47:33.551Z,0
2017-09-25T01:48:14.125Z,0
2017-09-25T01:48:54.683Z,0
2017-09-25T01:49:35.246Z,0
2017-09-25T01:50:15.822Z,0
2017-09-25T01:50:56.405Z,0
2017-09-25T01:51:36.970Z,0
2017-09-25T01:52:17.556Z,0
2017-09-25T01:52:58.130Z,0
2017-09-25T01:53:38.708Z,0
2017-09-25T01:54:19.970Z,0
2017-09-25T01:55:00.538Z,0
2017-09-25T01:55:41.112Z,0
2017-09-25T01:56:21.692Z,0
2017-09-25T01:57:02.268Z,0
2017-09-25T01:57:42.846Z,0
2017-09-25T01:58:23.412Z,0
2017-09-25T02:00:36.268Z,0
2017-09-25T02:01:16.845Z,0
2017-09-25T02:01:57.416Z,0
2017-09-25T02:02:37.983Z,0
2017-09-25T02:03:18.553Z,0
2017-09-25T02:03:59.136Z,0
2017-09-25T02:04:39.711Z,0
2017-09-25T02:05:20.294Z,0
2017-09-25T02:06:00.864Z,0
2017-09-25T02:06:41.440Z,0
2017-09-25T02:07:22.008Z,0
2017-09-25T02:08:02.568Z,0
2017-09-25T02:08:43.138Z,0
2017-09-25T02:09:23.703Z,0
2017-09-25T02:10:04.273Z,0
2017-09-25T02:10:44.854Z,0
2017-09-25T02:11:25.436Z,0
2017-09-25T02:12:06.015Z,0
2017-09-25T02:12:46.592Z,0
2017-09-25T02:13:27.175Z,0
2017-09-25T02:14:07.751Z,0
2017-09-25T02:14:48.319Z,0
2017-09-25T02:15:28.898Z,0
2017-09-25T02:16:09.477Z,0
2017-09-25T02:16:50.054Z,0
2017-09-25T02:17:30.631Z,0
2017-09-25T02:18:11.207Z,0
2017-09-25T02:18:51.790Z,0
2017-09-25T02:19:32.351Z,0
2017-09-25T02:20:12.930Z,0
2017-09-25T02:20:53.600Z,0
2017-09-25T02:21:34.176Z,0
2017-09-25T02:22:14.757Z,0
2017-09-25T02:22:55.333Z,0
2017-09-25T02:23:35.912Z,0
2017-09-25T02:24:16.495Z,0
2017-09-25T02:24:57.073Z,0
2017-09-25T02:25:37.639Z,0
2017-09-25T02:26:18.215Z,0
2017-09-25T02:28:46.312Z,0
2017-09-25T02:29:26.885Z,0
2017-09-25T02:30:07.464Z,0
2017-09-25T02:30:48.044Z,0
2017-09-25T02:31:28.621Z,0
2017-09-25T02:32:09.202Z,0
2017-09-25T02:32:49.776Z,0
2017-09-25T02:33:30.348Z,0
2017-09-25T02:34:10.918Z,0
2017-09-25T02:34:51.494Z,0
2017-09-25T02:35:32.071Z,0
2017-09-25T02:36:12.643Z,0
2017-09-25T02:36:53.226Z,0
2017-09-25T02:37:33.805Z,0
2017-09-25T02:38:14.378Z,0
2017-09-25T02:38:54.958Z,0
2017-09-25T02:39:35.536Z,0
2017-09-25T02:40:16.104Z,0
2017-09-25T02:40:56.677Z,0
2017-09-25T02:41:37.243Z,0
2017-09-25T02:42:17.864Z,0
2017-09-25T02:42:58.445Z,0
2017-09-25T02:43:39.024Z,0
2017-09-25T02:44:19.599Z,0
2017-09-25T02:45:00.180Z,0
2017-09-25T02:45:40.751Z,0
2017-09-25T02:46:21.336Z,0
2017-09-25T02:47:01.920Z,0
2017-09-25T02:47:42.501Z,0
2017-09-25T02:48:23.076Z,0
2017-09-25T02:49:03.659Z,0
2017-09-25T02:49:44.233Z,0
2017-09-25T02:50:24.811Z,0
2017-09-25T02:51:05.396Z,0
2017-09-25T02:51:45.981Z,0
2017-09-25T02:52:26.560Z,0
2017-09-25T02:53:07.131Z,0
2017-09-25T02:53:47.705Z,0
2017-09-25T02:54:28.284Z,0
2017-09-25T02:55:08.870Z,0
2017-09-25T02:55:49.429Z,0
2017-09-25T02:56:30.709Z,0
2017-09-25T02:57:11.256Z,0
2017-09-25T02:57:51.820Z,0
2017-09-25T02:58:32.973Z,0
2017-09-25T02:59:13.541Z,0
2017-09-25T02:59:54.112Z,0
2017-09-25T03:00:34.683Z,0
2017-09-25T03:01:15.265Z,0
2017-09-25T03:01:55.849Z,0
2017-09-25T03:02:36.410Z,0
2017-09-25T03:03:16.994Z,0
2017-09-25T03:03:57.590Z,0
2017-09-25T03:04:38.167Z,0
2017-09-25T03:05:18.754Z,0
2017-09-25T03:05:59.344Z,0
2017-09-25T03:06:39.927Z,0
2017-09-25T03:07:20.494Z,0
2017-09-25T03:08:01.059Z,0
2017-09-25T03:08:41.626Z,0
2017-09-25T03:09:22.196Z,0
2017-09-25T03:10:02.777Z,0
2017-09-25T03:10:45.311Z,0
2017-09-25T03:11:26.812Z,0
2017-09-25T03:12:07.512Z,0
2017-09-25T03:12:48.063Z,0
2017-09-25T03:13:28.636Z,0
2017-09-25T03:14:09.201Z,0
2017-09-25T03:14:49.770Z,0
2017-09-25T03:15:30.354Z,0
2017-09-25T03:16:10.923Z,0
2017-09-25T03:16:51.501Z,0
2017-09-25T03:17:32.082Z,0
2017-09-25T03:18:12.692Z,0
2017-09-25T03:18:53.314Z,0
2017-09-25T03:19:34.104Z,0
2017-09-25T03:20:14.791Z,0
2017-09-25T03:20:55.379Z,0
2017-09-25T03:21:36.046Z,0
2017-09-25T03:22:16.626Z,0
2017-09-25T03:22:57.259Z,0
2017-09-25T03:23:37.893Z,0
2017-09-25T03:24:18.561Z,0
2017-09-25T03:24:59.125Z,0
2017-09-25T03:25:39.706Z,0
2017-09-25T03:26:20.283Z,0
2017-09-25T03:27:00.896Z,0
2017-09-25T03:27:41.467Z,0
2017-09-25T03:28:22.046Z,0
2017-09-25T03:29:02.651Z,0
2017-09-25T03:29:43.208Z,0
2017-09-25T03:30:23.819Z,0
2017-09-25T03:31:04.470Z,0
2017-09-25T03:31:45.084Z,0
2017-09-25T03:32:25.663Z,0
2017-09-25T03:33:06.316Z,0
2017-09-25T03:33:46.961Z,0
2017-09-25T03:34:28.652Z,0
2017-09-25T03:35:19.946Z,0
2017-09-25T03:36:01.400Z,0
2017-09-25T03:36:42.039Z,0
2017-09-25T03:37:22.737Z,0
2017-09-25T03:38:04.316Z,0
2017-09-25T03:38:44.946Z,0
2017-09-25T03:39:25.516Z,0
2017-09-25T03:40:06.364Z,0
2017-09-25T03:40:46.989Z,0
2017-09-25T03:41:28.745Z,0
2017-09-25T03:43:56.539Z,0
2017-09-25T03:44:38.181Z,0
2017-09-25T03:45:18.729Z,0
2017-09-25T03:45:59.367Z,0
2017-09-25T03:46:40.098Z,0
2017-09-25T03:47:20.658Z,0
2017-09-25T03:48:01.273Z,0
2017-09-25T03:48:41.898Z,0
2017-09-25T03:49:22.562Z,0
2017-09-25T03:50:03.154Z,0
2017-09-25T03:50:43.721Z,0
2017-09-25T03:51:24.274Z,0
2017-09-25T03:52:04.842Z,0
2017-09-25T03:52:45.406Z,0
2017-09-25T03:53:25.983Z,0
2017-09-25T03:54:06.490Z,0
2017-09-25T03:54:47.055Z,0
2017-09-25T03:55:27.631Z,0
2017-09-25T03:56:08.199Z,0
2017-09-25T03:56:48.763Z,0
2017-09-25T03:57:29.323Z,0
2017-09-25T03:58:09.913Z,0
2017-09-25T03:58:50.486Z,0
2017-09-25T03:59:31.057Z,0
2017-09-25T04:00:11.639Z,0
2017-09-25T04:00:52.207Z,0
2017-09-25T04:01:32.758Z,0
2017-09-25T04:02:13.349Z,0
2017-09-25T04:02:53.914Z,0
2017-09-25T04:03:34.496Z,0
2017-09-25T04:04:15.053Z,0
2017-09-25T04:04:55.612Z,0
2017-09-25T04:05:36.161Z,0
2017-09-25T04:06:16.721Z,0
2017-09-25T04:06:57.295Z,0
2017-09-25T04:07:37.868Z,0
2017-09-25T04:08:18.459Z,0
2017-09-25T04:08:59.006Z,0
2017-09-25T04:09:39.565Z,0
2017-09-25T04:10:20.144Z,0
2017-09-25T04:11:00.703Z,0
2017-09-25T04:11:41.272Z,0
2017-09-25T04:12:21.827Z,0
2017-09-25T04:13:02.380Z,0
2017-09-25T04:13:42.950Z,0
2017-09-25T04:14:23.502Z,0
2017-09-25T04:15:04.053Z,0
2017-09-25T04:15:44.626Z,0
2017-09-25T04:16:25.180Z,0
2017-09-25T04:17:05.726Z,0
2017-09-25T04:17:46.283Z,0
2017-09-25T04:18:26.834Z,0
2017-09-25T04:19:07.406Z,0
2017-09-25T04:19:47.981Z,0
2017-09-25T04:20:29.100Z,0
2017-09-25T04:21:09.666Z,0
2017-09-25T04:21:50.218Z,0
2017-09-25T04:22:30.766Z,0
2017-09-25T04:23:11.350Z,0
2017-09-25T04:23:51.898Z,0
2017-09-25T04:24:32.462Z,0
2017-09-25T04:25:13.045Z,0
2017-09-25T04:25:53.570Z,0
2017-09-25T04:26:34.146Z,0
2017-09-25T04:27:14.681Z,0
2017-09-25T04:27:55.214Z,0
2017-09-25T04:28:35.779Z,0
2017-09-25T04:29:16.362Z,0
2017-09-25T04:29:56.882Z,0
2017-09-25T04:30:37.419Z,0
2017-09-25T04:31:17.962Z,0
2017-09-25T04:31:58.506Z,0
2017-09-25T04:32:39.079Z,0
2017-09-25T04:33:19.610Z,0
2017-09-25T04:34:00.157Z,0
2017-09-25T04:34:40.702Z,4
2017-09-25T04:35:21.271Z,4
2017-09-25T04:36:01.831Z,0
2017-09-25T04:36:42.383Z,0
2017-09-25T04:37:22.927Z,4
2017-09-25T04:38:03.493Z,4
2017-09-25T04:38:44.052Z,0
2017-09-25T04:39:24.601Z,4
2017-09-25T04:40:05.146Z,4
2017-09-25T04:42:38.320Z,4
2017-09-25T04:43:18.847Z,12
2017-09-25T04:43:59.372Z,12
2017-09-25T04:46:17.244Z,16
2017-09-25T04:46:57.805Z,16
2017-09-25T04:47:38.369Z,20
2017-09-25T04:49:56.314Z,28
2017-09-25T04:50:36.862Z,32
2017-09-25T04:51:17.425Z,40
2017-09-25T04:51:57.968Z,40
2017-09-25T04:52:38.535Z,48
2017-09-25T04:53:19.097Z,52
2017-09-25T04:53:59.634Z,60
2017-09-25T04:54:40.206Z,64
2017-09-25T04:55:20.735Z,72
2017-09-25T04:56:16.162Z,84
2017-09-25T04:56:56.711Z,96
2017-09-25T04:57:37.273Z,100
2017-09-25T04:58:17.844Z,116
2017-09-25T04:58:58.408Z,128
2017-09-25T04:59:38.951Z,140
2017-09-25T05:00:19.512Z,152
2017-09-25T05:01:00.082Z,168
2017-09-25T05:01:40.621Z,180
2017-09-25T05:02:21.179Z,196
2017-09-25T05:03:01.765Z,216
2017-09-25T05:03:42.316Z,236
2017-09-25T05:04:22.886Z,256
2017-09-25T05:05:03.433Z,276
2017-09-25T05:05:44.000Z,296
2017-09-25T05:06:24.546Z,320
2017-09-25T05:07:05.113Z,344
2017-09-25T05:07:45.655Z,364
2017-09-25T05:08:26.208Z,392
2017-09-25T05:09:06.790Z,420
2017-09-25T05:09:47.352Z,448
2017-09-25T05:10:27.896Z,480
2017-09-25T05:11:08.461Z,512
2017-09-25T05:11:49.038Z,544
2017-09-25T05:12:29.572Z,576
2017-09-25T05:14:42.415Z,696
2017-09-25T05:15:22.952Z,732
2017-09-25T05:16:03.485Z,772
2017-09-25T05:16:44.055Z,816
2017-09-25T05:17:24.614Z,856
2017-09-25T05:18:05.163Z,900
2017-09-25T05:18:45.734Z,944
2017-09-25T05:19:26.312Z,988
2017-09-25T05:20:06.820Z,1036
2017-09-25T05:20:47.385Z,1084
2017-09-25T05:21:27.967Z,1136
2017-09-25T05:22:08.535Z,1188
2017-09-25T05:22:49.087Z,1236
2017-09-25T05:23:29.647Z,1288
2017-09-25T05:25:42.453Z,1476
2017-09-25T05:26:23.029Z,1540
2017-09-25T05:27:03.604Z,1604
2017-09-25T05:27:44.185Z,1668
2017-09-25T05:28:24.766Z,1740
2017-09-25T05:29:05.329Z,1804
2017-09-25T05:29:45.913Z,1872
2017-09-25T05:30:26.451Z,1944
2017-09-25T05:31:06.988Z,2012
2017-09-25T05:31:47.562Z,2080
2017-09-25T05:32:28.088Z,2148
2017-09-25T05:33:08.651Z,2216
2017-09-25T05:33:49.205Z,2288
2017-09-25T05:34:29.761Z,2352
2017-09-25T05:35:10.314Z,2424
2017-09-25T05:35:50.864Z,2492
2017-09-25T05:36:31.445Z,2568
2017-09-25T05:37:14.009Z,2640
2017-09-25T05:37:54.559Z,2712
2017-09-25T05:38:35.120Z,2788
2017-09-25T05:39:15.678Z,2860
2017-09-25T05:39:56.247Z,2940
2017-09-25T05:40:36.810Z,3016
2017-09-25T05:41:17.384Z,3096
2017-09-25T05:41:57.914Z,3172
2017-09-25T05:42:38.490Z,3252
2017-09-25T05:43:19.046Z,3336
2017-09-25T05:45:36.985Z,3620
2017-09-25T05:46:17.526Z,3708
2017-09-25T05:46:58.098Z,3788
2017-09-25T05:47:38.665Z,3876
2017-09-25T05:48:19.208Z,3964
2017-09-25T05:48:59.782Z,4048
2017-09-25T05:49:40.352Z,4136
2017-09-25T05:50:20.900Z,4220
2017-09-25T05:51:01.461Z,4304
2017-09-25T05:51:42.038Z,4384
2017-09-25T05:52:22.586Z,4476
2017-09-25T05:53:03.165Z,4552
2017-09-25T05:53:43.707Z,4632
2017-09-25T05:54:24.291Z,4716
2017-09-25T05:55:04.885Z,4796
2017-09-25T05:55:45.458Z,4880
2017-09-25T05:56:26.020Z,4964
2017-09-25T05:57:06.579Z,5056
2017-09-25T05:57:47.167Z,5136
2017-09-25T05:58:27.732Z,5216
2017-09-25T05:59:08.301Z,5292
2017-09-25T05:59:48.876Z,5376
2017-09-25T06:00:29.455Z,5452
2017-09-25T06:01:09.997Z,5532
2017-09-25T06:01:50.558Z,5612
2017-09-25T06:02:31.136Z,5688
2017-09-25T06:03:11.730Z,5760
2017-09-25T06:03:52.279Z,5840
2017-09-25T06:04:32.834Z,5908
2017-09-25T06:05:13.390Z,5988
2017-09-25T06:05:53.964Z,6080
2017-09-25T06:06:34.529Z,6176
2017-09-25T06:07:15.100Z,6260
2017-09-25T06:07:55.703Z,6364
2017-09-25T06:08:36.245Z,6472
2017-09-25T06:09:16.797Z,6580
2017-09-25T06:09:57.370Z,6680
2017-09-25T06:10:37.944Z,6760
2017-09-25T06:11:18.527Z,6856
2017-09-25T06:11:59.109Z,6944
2017-09-25T06:12:39.651Z,7028
2017-09-25T06:13:20.225Z,7116
2017-09-25T06:14:00.788Z,7220
2017-09-25T06:14:41.333Z,7336
2017-09-25T06:15:21.891Z,7456
2017-09-25T06:16:02.456Z,7560
2017-09-25T06:16:43.040Z,7672
2017-09-25T06:17:23.607Z,7784
2017-09-25T06:18:04.170Z,7872
2017-09-25T06:18:44.724Z,7940
2017-09-25T06:19:25.265Z,8000
2017-09-25T06:20:05.837Z,8060
2017-09-25T06:20:46.408Z,8152
2017-09-25T06:21:26.970Z,8236
2017-09-25T06:22:07.521Z,8336
2017-09-25T06:22:48.138Z,8428
2017-09-25T06:23:28.675Z,8504
2017-09-25T06:24:09.254Z,8600
2017-09-25T06:24:49.834Z,8692
2017-09-25T06:25:45.345Z,8788
2017-09-25T06:26:25.917Z,8844
2017-09-25T06:27:06.474Z,8900
2017-09-25T06:27:47.026Z,8964
2017-09-25T06:28:27.596Z,9048
2017-09-25T06:29:08.191Z,9152
2017-09-25T06:29:48.767Z,9288
2017-09-25T06:30:29.322Z,9448
2017-09-25T06:31:09.898Z,9640
2017-09-25T06:31:50.487Z,9856
2017-09-25T06:32:31.029Z,10088
2017-09-25T06:33:11.595Z,10364
2017-09-25T06:33:52.171Z,10684
2017-09-25T06:34:32.742Z,11024
2017-09-25T06:35:13.326Z,11392
2017-09-25T06:35:53.897Z,12900
2017-09-25T06:36:34.465Z,15520
2017-09-25T06:37:15.029Z,18208
2017-09-25T06:37:55.613Z,20000
2017-09-25T06:38:36.182Z,19808
2017-09-25T06:39:16.765Z,19296
2017-09-25T06:39:57.336Z,19360
2017-09-25T06:40:37.918Z,19936
2017-09-25T06:41:18.501Z,20672
2017-09-25T06:41:59.079Z,21440
2017-09-25T06:42:39.658Z,21984
2017-09-25T06:43:20.236Z,22080
2017-09-25T06:44:00.803Z,21536
2017-09-25T06:44:41.385Z,20800
2017-09-25T06:45:21.967Z,20576
2017-09-25T06:46:02.542Z,20768
2017-09-25T06:46:43.124Z,20928
2017-09-25T06:47:23.685Z,21536
2017-09-25T06:48:04.273Z,22336
2017-09-25T06:48:44.846Z,23296
2017-09-25T06:49:25.425Z,24224
2017-09-25T06:50:05.997Z,24480
2017-09-25T06:50:46.578Z,24480
2017-09-25T06:51:27.168Z,24096
2017-09-25T06:52:07.754Z,23840
2017-09-25T06:52:48.336Z,23776
2017-09-25T06:53:28.928Z,24704
2017-09-25T06:54:09.503Z,25952
2017-09-25T06:54:50.093Z,26240
2017-09-25T06:55:30.673Z,25856
2017-09-25T06:56:11.258Z,24832
2017-09-25T06:56:51.830Z,24416
2017-09-25T06:57:32.412Z,24832
2017-09-25T06:58:12.983Z,25184
2017-09-25T06:58:53.568Z,25472
2017-09-25T06:59:34.149Z,25696
2017-09-25T07:00:14.739Z,26368
2017-09-25T07:00:55.303Z,27328
2017-09-25T07:01:35.880Z,28288
2017-09-25T07:02:16.461Z,28992
2017-09-25T07:02:57.047Z,29472
2017-09-25T07:03:37.623Z,29568
2017-09-25T07:04:18.213Z,29472
2017-09-25T07:04:58.795Z,29120
2017-09-25T07:05:39.375Z,28960
2017-09-25T07:06:19.960Z,29056
2017-09-25T07:07:00.549Z,29504
2017-09-25T07:07:41.139Z,29856
2017-09-25T07:08:21.719Z,29888
2017-09-25T07:09:02.299Z,29728
2017-09-25T07:09:42.891Z,29344
2017-09-25T07:10:24.994Z,31008
2017-09-25T07:11:06.151Z,31648
2017-09-25T07:11:46.734Z,32224
2017-09-25T07:12:27.333Z,33152
2017-09-25T07:13:07.957Z,33760
2017-09-25T07:13:50.380Z,34208
2017-09-25T07:14:31.889Z,34336
2017-09-25T07:15:12.431Z,33952
2017-09-25T07:15:53.066Z,33120
2017-09-25T07:16:33.640Z,32224
2017-09-25T07:17:14.232Z,31776
2017-09-25T07:17:54.823Z,31488
2017-09-25T07:18:35.448Z,31168
2017-09-25T07:19:15.973Z,31072
2017-09-25T07:19:56.636Z,31456
2017-09-25T07:20:37.150Z,31872
2017-09-25T07:21:17.716Z,32320
2017-09-25T07:21:58.295Z,32448
2017-09-25T07:22:38.909Z,32832
2017-09-25T07:23:19.516Z,32864
2017-09-25T07:24:00.075Z,33024
2017-09-25T07:24:40.658Z,33280
2017-09-25T07:25:21.261Z,33760
2017-09-25T07:26:01.831Z,34688
2017-09-25T07:26:42.439Z,36064
2017-09-25T07:27:23.048Z,37120
2017-09-25T07:28:03.610Z,37472
2017-09-25T07:28:44.174Z,36896
2017-09-25T07:29:24.711Z,35808
2017-09-25T07:30:05.330Z,34624
2017-09-25T07:30:45.861Z,34816
2017-09-25T07:31:41.364Z,36640
2017-09-25T07:32:21.980Z,38688
2017-09-25T07:33:02.565Z,40384
2017-09-25T07:33:43.158Z,41472
2017-09-25T07:34:23.785Z,41568
2017-09-25T07:35:04.360Z,41376
2017-09-25T07:35:44.928Z,41248
2017-09-25T07:36:25.563Z,41504
2017-09-25T07:37:06.113Z,41536
2017-09-25T07:37:46.695Z,41856
2017-09-25T07:38:29.296Z,41920
2017-09-25T07:39:09.871Z,41440
2017-09-25T07:39:50.451Z,41088
2017-09-25T07:40:31.003Z,41024
2017-09-25T07:41:11.577Z,41248
2017-09-25T07:41:52.136Z,40032
2017-09-25T07:42:32.712Z,40224
2017-09-25T07:43:13.255Z,41568
2017-09-25T07:43:53.834Z,42720
2017-09-25T07:44:34.370Z,43264
2017-09-25T07:45:14.951Z,44032
2017-09-25T07:45:55.530Z,44800
2017-09-25T07:46:36.116Z,44512
2017-09-25T07:47:16.678Z,44416
2017-09-25T07:47:57.242Z,44096
2017-09-25T07:48:37.833Z,44064
2017-09-25T07:49:18.395Z,44288
2017-09-25T07:49:58.963Z,44960
2017-09-25T07:50:39.537Z,46016
2017-09-25T07:51:20.102Z,47072
2017-09-25T07:52:00.703Z,48736
2017-09-25T07:52:41.249Z,49632
2017-09-25T07:53:21.835Z,49696
2017-09-25T07:54:02.388Z,48960
2017-09-25T07:54:42.966Z,48320
2017-09-25T07:55:23.513Z,47584
2017-09-25T07:56:04.080Z,47232
2017-09-25T07:56:44.676Z,47648
2017-09-25T07:57:25.233Z,48224
2017-09-25T07:58:05.786Z,49056
2017-09-25T07:58:46.360Z,49856
2017-09-25T07:59:26.906Z,50080
2017-09-25T08:00:07.471Z,50048
2017-09-25T08:00:48.044Z,49056
2017-09-25T08:01:28.621Z,48384
2017-09-25T08:02:09.257Z,48352
2017-09-25T08:02:49.821Z,48864
2017-09-25T08:03:30.357Z,50240
2017-09-25T08:04:10.905Z,51520
2017-09-25T08:04:51.458Z,52768
2017-09-25T08:05:32.050Z,53504
2017-09-25T08:06:12.602Z,54464
2017-09-25T08:06:53.183Z,54720
2017-09-25T08:07:33.795Z,54752
2017-09-25T08:08:15.293Z,55136
2017-09-25T08:08:55.844Z,54912
2017-09-25T08:09:36.456Z,53856
2017-09-25T08:10:16.993Z,52736
2017-09-25T08:10:57.598Z,51456
2017-09-25T08:11:38.154Z,51008
2017-09-25T08:12:18.712Z,51040
2017-09-25T08:12:59.284Z,50528
2017-09-25T08:13:39.845Z,49920
2017-09-25T08:14:20.426Z,51360
2017-09-25T08:15:00.978Z,52608
2017-09-25T08:15:41.545Z,53024
2017-09-25T08:16:22.093Z,52768
2017-09-25T08:17:02.666Z,53536
2017-09-25T08:17:43.252Z,53728
2017-09-25T08:18:23.840Z,54528
2017-09-25T08:19:04.399Z,55328
2017-09-25T08:19:44.958Z,55584
2017-09-25T08:20:25.502Z,55552
2017-09-25T08:21:06.045Z,55296
2017-09-25T08:21:46.607Z,54880
2017-09-25T08:22:27.192Z,53152
2017-09-25T08:23:07.735Z,47680
2017-09-25T08:23:48.317Z,42944
2017-09-25T08:24:28.895Z,42624
2017-09-25T08:25:09.491Z,45472
2017-09-25T08:25:50.112Z,47328
2017-09-25T08:26:30.738Z,50528
2017-09-25T08:27:11.334Z,59552
2017-09-25T08:27:51.901Z,59808
2017-09-25T08:28:32.496Z,60416
2017-09-25T08:29:13.152Z,60544
2017-09-25T08:29:53.734Z,59872
2017-09-25T08:30:34.292Z,58688
2017-09-25T08:31:14.978Z,57184
2017-09-25T08:31:55.524Z,54304
2017-09-25T08:32:36.101Z,54464
2017-09-25T08:33:16.698Z,54848
2017-09-25T08:33:57.313Z,48416
2017-09-25T08:34:37.943Z,37120
2017-09-25T08:35:18.531Z,55584
2017-09-25T08:35:59.209Z,60320
2017-09-25T08:36:39.776Z,56736
2017-09-25T08:37:20.411Z,46976
2017-09-25T08:38:00.958Z,45216
2017-09-25T08:38:41.537Z,37920
2017-09-25T08:39:22.168Z,40416
2017-09-25T08:40:02.814Z,42240
2017-09-25T08:40:43.419Z,38816
2017-09-25T08:41:24.011Z,36384
2017-09-25T08:42:04.681Z,38144
2017-09-25T08:42:45.233Z,53792
2017-09-25T08:43:25.798Z,51904
2017-09-25T08:44:06.394Z,56288
2017-09-25T08:44:46.971Z,56640
2017-09-25T08:45:27.643Z,59776
2017-09-25T08:46:08.211Z,59520
2017-09-25T08:46:48.804Z,64352
2017-09-25T08:47:29.479Z,65152
2017-09-25T08:48:10.058Z,65952
2017-09-25T08:48:50.664Z,66240
2017-09-25T08:49:31.254Z,65248
2017-09-25T08:50:11.873Z,64096
2017-09-25T08:50:52.482Z,62048
2017-09-25T08:51:33.095Z,62976
2017-09-25T08:52:13.718Z,67680
2017-09-25T08:52:54.314Z,65632
2017-09-25T08:53:34.973Z,70816
2017-09-25T08:54:15.547Z,72288
2017-09-25T08:54:56.115Z,70688
2017-09-25T08:55:36.721Z,68864
2017-09-25T08:56:17.307Z,66432
2017-09-25T08:56:57.906Z,65376
2017-09-25T08:57:38.491Z,65952
2017-09-25T08:58:19.061Z,66208
2017-09-25T08:58:59.622Z,66304
2017-09-25T08:59:40.189Z,65440
2017-09-25T09:00:20.810Z,68064
2017-09-25T09:01:01.345Z,66976
2017-09-25T09:01:41.904Z,64256
2017-09-25T09:02:22.468Z,60288
2017-09-25T09:03:03.023Z,66464
2017-09-25T09:03:43.597Z,67552
2017-09-25T09:04:24.171Z,47136
2017-09-25T09:05:06.551Z,59904
2017-09-25T09:05:47.125Z,62624
2017-09-25T09:06:27.709Z,66912
2017-09-25T09:07:08.263Z,69920
2017-09-25T09:07:48.863Z,76832
2017-09-25T09:08:29.411Z,78112
2017-09-25T09:09:10.004Z,77792
2017-09-25T09:09:50.548Z,77056
2017-09-25T09:10:31.176Z,75776
2017-09-25T09:11:11.807Z,75040
2017-09-25T09:11:52.367Z,74688
2017-09-25T09:12:33.000Z,75616
2017-09-25T09:13:13.577Z,74880
2017-09-25T09:13:54.205Z,73600
2017-09-25T09:14:34.766Z,69664
2017-09-25T09:15:15.327Z,69920
2017-09-25T09:15:55.899Z,71296
2017-09-25T09:18:09.774Z,76896
2017-09-25T09:18:50.364Z,75616
2017-09-25T09:19:30.966Z,67488
2017-09-25T09:20:11.559Z,66176
2017-09-25T09:20:52.149Z,49632
2017-09-25T09:21:32.735Z,31840
2017-09-25T09:22:13.330Z,31424
2017-09-25T09:22:53.917Z,35136
2017-09-25T09:23:34.510Z,33216
2017-09-25T09:24:15.104Z,45952
2017-09-25T09:24:55.684Z,61312
2017-09-25T09:25:36.280Z,57568
2017-09-25T09:26:16.864Z,59104
2017-09-25T09:26:57.449Z,57664
2017-09-25T09:27:38.051Z,43616
2017-09-25T09:28:18.630Z,35008
2017-09-25T09:28:59.202Z,44800
2017-09-25T09:29:39.800Z,51264
2017-09-25T09:30:20.386Z,61696
2017-09-25T09:31:00.962Z,57888
2017-09-25T09:31:41.547Z,58816
2017-09-25T09:32:22.140Z,61216
2017-09-25T09:33:02.723Z,54208
2017-09-25T09:33:43.318Z,62624
2017-09-25T09:34:23.913Z,65536
2017-09-25T09:35:04.499Z,59744
2017-09-25T09:35:45.099Z,61984
2017-09-25T09:36:25.695Z,59552
2017-09-25T09:37:06.286Z,66464
2017-09-25T09:37:46.875Z,68224
2017-09-25T09:38:27.471Z,61920
2017-09-25T09:39:08.057Z,63968
2017-09-25T09:39:55.542Z,58816
2017-09-25T09:40:36.128Z,58336
2017-09-25T09:41:16.707Z,67360
2017-09-25T09:41:57.286Z,72416